Tokyo, Japan
Current Conditions -  °F | °C
As of 4:00 AM on Wednesday 28 Jan 2015 (Local Time) from RJTT Reporting Station
Light Rain Light Rain  
Wind Chill: 35°   Ceiling: 5000
Heat Index: 43°   Visibility: 6mi
Dew Point: 37°   Wind: 15mph
Humidity: 81%   Direction: 50°NE
Pressure: 29.88"   Gusts: NA
Location:  35.67°N, 139.77°E
Report Text: RJTT 271900Z 05013KT 9999 -RA FEW020 BKN050 06/03 Q1012 NOSIG RMK 1CU020 7SC050 A2990
Loading
Personal Weather Stations






























Interactive Weather Map New forecast layout! Learn more

10-Day Weather Forecast

Advertisements
Track Severe Weather on mobile